Time;durP1;ratioP1;P1;durP2;ratioP2;P2;SDS_P1;SDS_P2;PMS_P1;PMS_P2;Temp;Humidity;BMP_temperature;BMP_pressure;BME280_temperature;BME280_humidity;BME280_pressure;Samples;Min_cycle;Max_cycle;Signal;HPM_P1;HPM_P2
2021/06/05 00:00:39;;;;;;;10.07;8.77;;;14.40;99.90;;;;;;5036878;28;20046;-77
2021/06/05 00:03:07;;;;;;;8.88;8.07;;;14.50;99.90;;;;;;5039387;28;20665;-76
2021/06/05 00:05:37;;;;;;;10.50;9.40;;;14.40;99.90;;;;;;5055764;28;20044;-77
2021/06/05 00:08:04;;;;;;;10.32;8.45;;;14.50;99.90;;;;;;5055513;28;20424;-77
2021/06/05 00:10:33;;;;;;;10.23;9.23;;;14.50;99.90;;;;;;5055232;28;20045;-77
2021/06/05 00:13:01;;;;;;;10.00;9.00;;;14.50;99.90;;;;;;5055409;28;20489;-77
2021/06/05 00:15:30;;;;;;;10.02;9.02;;;14.50;99.90;;;;;;5055686;28;20049;-77
2021/06/05 00:17:56;;;;;;;10.57;9.25;;;14.50;99.90;;;;;;5055868;28;20045;-77
2021/06/05 00:20:24;;;;;;;11.57;9.57;;;14.50;99.90;;;;;;5055484;28;20044;-77
2021/06/05 00:22:50;;;;;;;9.38;8.23;;;14.40;99.90;;;;;;5056056;28;20110;-77
2021/06/05 00:25:17;;;;;;;10.25;9.25;;;14.40;99.90;;;;;;5055665;28;20489;-77
2021/06/05 00:27:43;;;;;;;10.18;9.15;;;14.40;99.90;;;;;;5055541;28;20045;-77
2021/06/05 00:30:12;;;;;;;10.75;9.27;;;14.30;99.90;;;;;;5055447;28;20087;-77
2021/06/05 00:32:38;;;;;;;9.80;8.80;;;14.30;99.90;;;;;;5056141;28;20106;-77
2021/06/05 00:35:05;;;;;;;10.45;9.07;;;14.30;99.90;;;;;;5044668;28;20053;-77
2021/06/05 00:37:32;;;;;;;10.13;9.05;;;14.30;99.90;;;;;;5055557;28;20045;-77
2021/06/05 00:39:58;;;;;;;9.75;8.85;;;14.30;99.90;;;;;;5036413;28;20123;-77
2021/06/05 00:42:24;;;;;;;10.10;8.20;;;14.30;99.90;;;;;;5035680;28;20088;-77
2021/06/05 00:44:50;;;;;;;9.82;8.90;;;14.30;99.90;;;;;;5053746;28;20106;-77
2021/06/05 00:47:17;;;;;;;11.10;9.55;;;14.30;99.90;;;;;;5055888;28;20045;-76
2021/06/05 00:49:44;;;;;;;10.23;9.15;;;14.30;99.90;;;;;;5056860;28;20068;-77
2021/06/05 00:52:10;;;;;;;10.70;8.85;;;14.20;99.90;;;;;;5055373;28;20053;-76
2021/06/05 00:54:37;;;;;;;10.55;9.38;;;14.20;99.90;;;;;;5055466;28;20044;-77
2021/06/05 00:57:06;;;;;;;9.95;8.27;;;14.20;99.90;;;;;;5054814;28;20492;-77
2021/06/05 00:59:33;;;;;;;10.75;9.35;;;14.20;99.90;;;;;;5055717;28;20048;-77
2021/06/05 01:01:59;;;;;;;9.82;8.82;;;14.20;99.90;;;;;;5055584;28;20045;-77
2021/06/05 01:04:27;;;;;;;10.85;9.85;;;14.20;99.90;;;;;;5054033;28;20091;-77
2021/06/05 01:07:01;;;;;;;10.85;9.80;;;14.20;99.90;;;;;;5055537;28;20049;-77
2021/06/05 01:12:27;;;;;;;9.98;8.82;;;14.20;99.90;;;;;;5055389;28;20056;-77
2021/06/05 01:14:58;;;;;;;10.75;9.43;;;14.10;99.90;;;;;;5054697;28;20052;-77
2021/06/05 01:17:48;;;;;;;11.90;9.75;;;14.00;99.90;;;;;;5054806;28;20048;-77
2021/06/05 01:20:20;;;;;;;10.40;9.30;;;13.90;99.90;;;;;;5054825;28;20052;-77
2021/06/05 01:22:56;;;;;;;;;;;13.90;99.90;;;;;;5055353;28;20099;-77
2021/06/05 01:25:31;;;;;;;9.60;8.63;;;13.80;99.90;;;;;;5054207;28;19928;-77
2021/06/05 01:28:07;;;;;;;11.35;8.60;;;13.80;99.90;;;;;;5047586;28;20048;-77
2021/06/05 01:30:38;;;;;;;12.35;9.38;;;13.80;99.90;;;;;;5054514;28;20049;-77
2021/06/05 01:33:05;;;;;;;14.63;11.63;;;13.80;99.90;;;;;;5054616;28;20052;-77
2021/06/05 01:35:33;;;;;;;18.15;13.75;;;13.70;99.90;;;;;;5053717;28;20489;-77
2021/06/05 01:38:02;;;;;;;11.43;10.23;;;13.60;99.90;;;;;;5054138;28;20052;-76
2021/06/05 01:40:30;;;;;;;14.13;11.60;;;13.50;99.90;;;;;;5053682;28;20057;-76
2021/06/05 01:43:00;;;;;;;34.85;21.73;;;13.50;99.90;;;;;;5053656;28;20049;-76
2021/06/05 01:45:31;;;;;;;55.58;33.25;;;13.40;99.90;;;;;;5054931;28;20041;-77
2021/06/05 01:47:58;;;;;;;13.40;10.73;;;13.50;99.90;;;;;;5054385;28;20045;-77
2021/06/05 01:50:27;;;;;;;20.23;14.52;;;13.50;99.90;;;;;;5054894;28;20041;-78
2021/06/05 01:52:57;;;;;;;21.77;16.55;;;13.40;99.90;;;;;;5054814;28;20592;-77
2021/06/05 01:55:27;;;;;;;81.13;48.38;;;13.50;99.90;;;;;;5053866;28;20056;-77
2021/06/05 01:57:58;;;;;;;35.75;24.05;;;13.50;99.90;;;;;;5053936;28;20048;-77
2021/06/05 02:00:30;;;;;;;17.15;12.63;;;13.60;99.90;;;;;;5054159;28;20056;-76
2021/06/05 02:02:57;;;;;;;15.07;12.57;;;13.60;99.90;;;;;;5053833;28;20045;-77
2021/06/05 02:05:26;;;;;;;21.98;15.70;;;13.50;99.90;;;;;;5038349;28;20053;-77
2021/06/05 02:07:54;;;;;;;51.88;29.80;;;13.50;99.90;;;;;;5046938;28;20045;-77
2021/06/05 02:10:22;;;;;;;46.13;29.83;;;13.50;99.90;;;;;;5053639;28;20069;-77
2021/06/05 02:12:55;;;;;;;37.88;24.65;;;13.50;99.90;;;;;;5039881;28;20516;-77
2021/06/05 02:15:38;;;;;;;16.23;11.75;;;13.50;99.90;;;;;;5034290;28;20399;-77
2021/06/05 02:18:09;;;;;;;14.27;11.02;;;13.40;99.90;;;;;;5038654;28;20041;-77
2021/06/05 02:20:38;;;;;;;41.53;24.40;;;13.50;99.90;;;;;;5053657;28;20056;-77
2021/06/05 02:23:11;;;;;;;44.22;25.50;;;13.50;99.90;;;;;;5053941;28;20431;-77
2021/06/05 02:25:38;;;;;;;23.27;15.57;;;13.50;99.90;;;;;;5053824;28;20049;-77
2021/06/05 02:28:05;;;;;;;19.77;15.07;;;13.50;99.90;;;;;;5053865;28;20045;-78
2021/06/05 02:30:34;;;;;;;36.35;22.20;;;13.40;99.90;;;;;;5053058;28;20374;-77
2021/06/05 02:33:19;;;;;;;19.63;12.75;;;13.40;99.90;;;;;;5052731;28;20048;-76
2021/06/05 02:35:50;;;;;;;12.10;9.52;;;13.40;99.90;;;;;;5053617;28;20049;-77
2021/06/05 02:38:18;;;;;;;16.40;11.05;;;13.40;99.90;;;;;;5053288;28;20455;-76
2021/06/05 02:40:59;;;;;;;11.35;9.68;;;13.40;99.90;;;;;;5051703;28;20512;-77
2021/06/05 02:43:29;;;;;;;26.75;18.38;;;13.40;99.90;;;;;;5033351;28;20042;-77
2021/06/05 02:46:03;;;;;;;22.33;15.00;;;13.30;99.90;;;;;;5033520;28;20409;-77
2021/06/05 02:48:47;;;;;;;37.75;19.77;;;13.20;99.90;;;;;;5033616;28;20049;-77
2021/06/05 02:51:18;;;;;;;19.48;13.57;;;13.20;99.90;;;;;;5036663;28;20041;-77
2021/06/05 02:53:44;;;;;;;20.73;15.35;;;13.30;99.90;;;;;;5053082;28;20041;-77
2021/06/05 02:56:25;;;;;;;20.25;13.85;;;13.30;99.90;;;;;;5052650;28;20103;-77
2021/06/05 02:58:52;;;;;;;18.10;13.85;;;13.30;99.90;;;;;;5052761;28;20048;-76
2021/06/05 03:01:19;;;;;;;21.60;15.10;;;13.40;99.90;;;;;;5052647;28;20056;-77
2021/06/05 03:03:54;;;;;;;18.38;11.93;;;13.40;99.90;;;;;;5044949;28;20050;-77
2021/06/05 03:06:21;;;;;;;19.48;13.88;;;13.50;99.90;;;;;;5032812;28;20095;-76
2021/06/05 03:08:47;;;;;;;14.23;12.23;;;13.50;99.90;;;;;;5043586;28;20049;-76
2021/06/05 03:11:19;;;;;;;13.60;12.18;;;13.50;99.90;;;;;;5053374;28;20052;-77
2021/06/05 03:13:48;;;;;;;28.58;18.85;;;13.40;99.90;;;;;;5053064;28;20056;-76
2021/06/05 03:16:15;;;;;;;14.90;12.10;;;13.40;99.90;;;;;;5053378;28;20045;-78
2021/06/05 03:18:43;;;;;;;16.23;12.15;;;13.30;99.90;;;;;;5053592;28;20095;-77
2021/06/05 03:21:19;;;;;;;13.73;10.63;;;13.30;99.90;;;;;;5053154;28;20048;-77
2021/06/05 03:23:47;;;;;;;15.07;11.95;;;13.30;99.90;;;;;;5053489;28;20049;-77
2021/06/05 03:26:15;;;;;;;19.67;14.02;;;13.30;99.90;;;;;;5053763;28;20041;-77
2021/06/05 03:28:41;;;;;;;14.20;11.05;;;13.40;99.90;;;;;;5053447;28;20051;-77
2021/06/05 03:31:08;;;;;;;70.53;38.55;;;13.40;99.90;;;;;;5053329;28;20053;-78
2021/06/05 03:33:34;;;;;;;68.63;39.15;;;13.50;99.90;;;;;;5052394;28;20049;-77
2021/06/05 03:36:03;;;;;;;13.25;11.85;;;13.50;99.90;;;;;;5053303;28;20045;-77
2021/06/05 03:38:29;;;;;;;12.45;11.15;;;13.60;99.90;;;;;;5053096;28;20053;-77
2021/06/05 03:40:56;;;;;;;22.90;14.95;;;13.50;99.90;;;;;;5053324;28;20056;-77
2021/06/05 03:43:23;;;;;;;47.28;29.77;;;13.60;99.90;;;;;;5053543;28;20045;-77
2021/06/05 03:45:50;;;;;;;54.05;31.55;;;13.70;99.90;;;;;;5052792;28;20064;-78
2021/06/05 03:48:17;;;;;;;57.13;34.90;;;13.80;99.90;;;;;;5049568;28;20126;-77
2021/06/05 03:50:46;;;;;;;49.63;32.40;;;13.90;99.90;;;;;;5053224;28;20056;-77
2021/06/05 03:53:14;;;;;;;40.35;25.30;;;14.00;99.90;;;;;;5053052;28;20045;-78
2021/06/05 03:55:41;;;;;;;21.83;15.75;;;14.10;99.90;;;;;;5052859;28;20049;-78
2021/06/05 03:58:10;;;;;;;19.10;14.55;;;14.10;99.90;;;;;;5052119;28;20041;-77
2021/06/05 04:00:40;;;;;;;31.38;19.35;;;14.20;99.90;;;;;;5052158;28;20524;-76
2021/06/05 04:03:07;;;;;;;11.00;9.32;;;14.20;99.90;;;;;;5053530;28;20041;-78
2021/06/05 04:05:34;;;;;;;33.50;21.02;;;14.30;99.90;;;;;;5052780;28;20049;-77
2021/06/05 04:08:01;;;;;;;45.70;26.02;;;14.40;99.90;;;;;;5053782;28;20040;-78
2021/06/05 04:10:29;;;;;;;18.85;13.15;;;14.40;99.90;;;;;;5053156;28;20737;-77
2021/06/05 04:12:57;;;;;;;19.63;13.23;;;14.50;99.90;;;;;;5051851;28;20045;-77
2021/06/05 04:15:25;;;;;;;12.80;11.50;;;14.70;99.90;;;;;;5052856;28;20088;-77
2021/06/05 04:17:59;;;;;;;17.10;13.10;;;14.90;99.90;;;;;;5055334;28;20049;-77
2021/06/05 04:20:25;;;;;;;11.65;10.45;;;15.00;99.90;;;;;;5057055;28;20393;-76
2021/06/05 04:22:52;;;;;;;11.75;10.02;;;15.10;99.90;;;;;;5054637;28;20506;-78
2021/06/05 04:25:19;;;;;;;39.58;23.80;;;15.20;99.90;;;;;;5036661;28;20053;-77
2021/06/05 04:27:46;;;;;;;29.73;18.52;;;15.30;99.90;;;;;;5040201;28;20421;-77
2021/06/05 04:30:16;;;;;;;14.63;12.27;;;15.40;99.90;;;;;;5037495;28;20053;-78
2021/06/05 04:32:42;;;;;;;10.68;8.65;;;15.60;99.90;;;;;;5056216;28;20044;-78
2021/06/05 04:35:09;;;;;;;10.43;9.43;;;15.70;99.90;;;;;;5056387;28;20045;-78
2021/06/05 04:37:35;;;;;;;12.48;9.93;;;15.90;99.90;;;;;;5056055;28;20519;-78
2021/06/05 04:40:01;;;;;;;12.63;10.60;;;15.90;99.90;;;;;;5056323;28;20056;-76
2021/06/05 04:42:27;;;;;;;11.95;10.00;;;16.10;99.90;;;;;;5055646;28;20049;-77
2021/06/05 04:44:55;;;;;;;32.83;20.77;;;16.10;99.90;;;;;;5055281;28;20045;-77
2021/06/05 04:47:21;;;;;;;14.32;11.60;;;16.10;99.90;;;;;;5055100;28;20106;-76
2021/06/05 04:49:47;;;;;;;20.42;14.95;;;16.20;99.90;;;;;;5055857;28;20110;-76
2021/06/05 04:52:13;;;;;;;13.35;9.95;;;16.30;99.90;;;;;;5055644;28;20095;-76
2021/06/05 04:54:39;;;;;;;9.80;8.63;;;16.40;99.90;;;;;;5055137;28;20047;-77
2021/06/05 04:57:06;;;;;;;12.48;9.68;;;16.50;99.90;;;;;;5055661;28;20045;-78
2021/06/05 04:59:32;;;;;;;13.20;11.70;;;16.70;99.90;;;;;;5055666;28;20424;-77
2021/06/05 05:01:59;;;;;;;9.23;8.13;;;16.70;99.90;;;;;;5055379;28;20488;-76
2021/06/05 05:04:25;;;;;;;14.60;10.90;;;16.80;99.90;;;;;;5055306;28;20045;-76
2021/06/05 05:06:53;;;;;;;15.10;10.35;;;17.00;99.90;;;;;;5055647;28;20064;-77
2021/06/05 05:09:19;;;;;;;10.68;8.23;;;17.10;99.90;;;;;;5054015;28;20041;-77
2021/06/05 05:11:46;;;;;;;9.63;8.68;;;17.20;99.90;;;;;;5036564;28;20049;-77
2021/06/05 05:14:19;;;;;;;11.40;8.63;;;17.30;99.90;;;;;;5037273;28;20055;-77
2021/06/05 05:16:45;;;;;;;10.35;9.13;;;17.40;99.90;;;;;;5035570;28;20405;-77
2021/06/05 05:19:13;;;;;;;12.45;10.05;;;17.50;99.90;;;;;;5056425;28;20045;-77
2021/06/05 05:21:39;;;;;;;12.25;8.95;;;17.60;99.90;;;;;;5056289;28;20064;-77
2021/06/05 05:24:07;;;;;;;12.45;9.85;;;17.80;99.90;;;;;;5055522;28;20056;-77
2021/06/05 05:26:33;;;;;;;9.15;7.88;;;17.90;99.90;;;;;;5055307;28;20048;-77
2021/06/05 05:29:00;;;;;;;10.55;8.30;;;18.10;99.90;;;;;;5054942;28;20091;-78
2021/06/05 05:31:28;;;;;;;9.20;7.43;;;18.20;99.90;;;;;;5054852;28;20099;-77
2021/06/05 05:34:04;;;;;;;9.35;7.97;;;18.30;99.90;;;;;;5055024;28;20045;-77
2021/06/05 05:36:34;;;;;;;17.20;11.75;;;18.50;99.90;;;;;;5048887;28;20163;-77
2021/06/05 05:39:00;;;;;;;10.40;8.52;;;18.60;99.90;;;;;;5040360;28;20079;-77
2021/06/05 05:41:27;;;;;;;8.82;7.80;;;18.70;99.90;;;;;;5050327;28;20052;-77
2021/06/05 05:43:54;;;;;;;8.50;7.45;;;18.80;99.90;;;;;;5054030;28;20045;-77
2021/06/05 05:46:20;;;;;;;8.73;7.75;;;18.80;99.90;;;;;;5054068;28;20045;-77
2021/06/05 05:48:48;;;;;;;9.82;7.30;;;18.90;99.90;;;;;;5053792;28;20048;-77
2021/06/05 05:51:16;;;;;;;9.57;7.60;;;19.00;99.90;;;;;;5054938;28;20045;-78
2021/06/05 05:53:44;;;;;;;8.27;7.47;;;19.10;99.90;;;;;;5045294;28;20049;-77
2021/06/05 05:56:12;;;;;;;7.85;6.20;;;19.30;99.90;;;;;;5056575;28;20102;-69
2021/06/05 05:58:41;;;;;;;11.93;8.63;;;19.50;99.90;;;;;;5054458;28;20041;-76
2021/06/05 06:01:09;;;;;;;11.05;8.18;;;19.70;99.90;;;;;;5061557;28;20072;-78
2021/06/05 06:03:35;;;;;;;7.82;7.10;;;19.90;99.90;;;;;;5034209;28;20046;-78
2021/06/05 06:06:02;;;;;;;13.70;8.27;;;20.10;99.90;;;;;;5045981;28;20052;-78
2021/06/05 06:08:28;;;;;;;7.50;6.70;;;20.30;99.90;;;;;;5048471;28;20072;-79
2021/06/05 06:10:58;;;;;;;8.32;7.43;;;20.60;99.90;;;;;;5063394;28;20048;-81
2021/06/05 06:13:24;;;;;;;6.70;6.00;;;20.90;99.90;;;;;;5057589;28;20126;-76
2021/06/05 06:15:50;;;;;;;8.27;7.50;;;21.20;99.90;;;;;;5051918;28;20075;-75
2021/06/05 06:18:17;;;;;;;8.02;6.82;;;21.50;99.90;;;;;;5047802;28;20041;-75
2021/06/05 06:20:45;;;;;;;8.27;7.40;;;21.70;99.90;;;;;;5052286;28;20052;-75
2021/06/05 06:23:13;;;;;;;10.10;6.50;;;21.90;99.90;;;;;;5033190;28;20513;-74
2021/06/05 06:25:40;;;;;;;7.18;6.47;;;22.20;99.90;;;;;;5032897;28;20060;-75
2021/06/05 06:28:09;;;;;;;8.13;7.40;;;22.40;99.90;;;;;;5040062;28;20056;-75
2021/06/05 06:30:37;;;;;;;6.78;6.07;;;22.60;99.40;;;;;;5052839;28;20041;-75
2021/06/05 06:33:04;;;;;;;6.65;5.30;;;22.90;98.10;;;;;;5052693;28;20041;-75
2021/06/05 06:35:32;;;;;;;6.97;6.28;;;23.10;97.30;;;;;;5048702;28;20049;-81
2021/06/05 06:40:43;;;;;;;8.57;6.43;;;23.80;94.90;;;;;;5057297;28;20576;-80
2021/06/05 06:43:24;;;;;;;6.90;6.30;;;24.10;94.20;;;;;;5057398;28;20045;-79
2021/06/05 06:45:50;;;;;;;6.43;5.82;;;24.20;92.50;;;;;;5056869;28;20048;-80
2021/06/05 06:48:21;;;;;;;9.00;5.20;;;24.30;92.60;;;;;;5053581;28;20041;-79
2021/06/05 06:50:48;;;;;;;6.15;5.18;;;24.50;91.80;;;;;;5054355;28;20057;-78
2021/06/05 06:53:14;;;;;;;5.43;4.93;;;24.70;90.60;;;;;;5054686;28;20056;-79
2021/06/05 06:55:41;;;;;;;6.28;5.15;;;24.90;89.90;;;;;;5059175;28;20053;-79
2021/06/05 06:58:07;;;;;;;5.63;5.10;;;25.10;87.90;;;;;;5054375;28;20048;-78
2021/06/05 07:00:37;;;;;;;5.05;4.60;;;25.50;85.50;;;;;;5054259;28;20056;-78
2021/06/05 07:03:04;;;;;;;5.13;4.82;;;25.80;83.80;;;;;;5054998;28;20409;-78
2021/06/05 07:05:33;;;;;;;4.85;4.28;;;26.10;80.60;;;;;;5053718;28;20049;-80
2021/06/05 07:08:11;;;;;;;4.80;4.40;;;26.30;81.90;;;;;;5054024;28;20049;-81
2021/06/05 07:10:39;;;;;;;5.07;4.68;;;26.80;79.30;;;;;;5053632;28;20412;-78
2021/06/05 07:13:09;;;;;;;4.75;4.35;;;27.10;76.10;;;;;;5054228;28;20463;-78
2021/06/05 07:15:39;;;;;;;5.60;4.77;;;27.20;72.50;;;;;;5053813;28;20049;-79
2021/06/05 07:18:09;;;;;;;4.88;4.38;;;27.20;72.60;;;;;;5053850;28;20048;-79
2021/06/05 07:20:44;;;;;;;5.95;4.75;;;27.20;73.10;;;;;;5053532;28;20114;-79
2021/06/05 07:23:11;;;;;;;4.40;4.00;;;27.50;72.00;;;;;;5054888;28;20049;-78
2021/06/05 07:25:43;;;;;;;6.28;5.03;;;27.70;70.50;;;;;;5054281;28;20057;-79
2021/06/05 07:28:15;;;;;;;4.88;4.28;;;28.00;69.70;;;;;;5054241;28;20045;-79
2021/06/05 07:30:46;;;;;;;5.28;4.88;;;28.00;69.00;;;;;;5054062;28;20051;-78
2021/06/05 07:33:13;;;;;;;5.70;5.10;;;28.10;67.30;;;;;;5053657;28;20512;-78
2021/06/05 07:35:53;;;;;;;3.90;3.60;;;28.10;67.00;;;;;;5053241;28;20045;-78
2021/06/05 07:38:25;;;;;;;6.10;4.13;;;28.20;65.20;;;;;;5053783;28;20045;-78
2021/06/05 07:40:52;;;;;;;3.85;3.55;;;28.60;65.50;;;;;;5053903;28;20056;-79
2021/06/05 07:43:21;;;;;;;3.67;3.35;;;29.00;64.00;;;;;;5053561;28;20041;-80
2021/06/05 07:45:49;;;;;;;4.07;3.60;;;28.70;60.50;;;;;;5053478;28;20045;-80
2021/06/05 07:48:15;;;;;;;4.22;3.40;;;29.00;62.10;;;;;;5054359;28;20095;-79
2021/06/05 07:50:43;;;;;;;3.80;3.50;;;29.30;60.30;;;;;;5053895;28;20111;-79
2021/06/05 07:53:09;;;;;;;4.35;3.97;;;29.30;59.60;;;;;;5057574;28;20040;-79
2021/06/05 07:55:35;;;;;;;3.47;3.20;;;29.40;59.60;;;;;;5049751;28;20065;-79
2021/06/05 07:58:02;;;;;;;3.60;3.25;;;29.40;58.10;;;;;;5037441;28;20096;-79
2021/06/05 08:00:30;;;;;;;5.55;3.90;;;29.40;58.60;;;;;;5037387;28;20053;-78
2021/06/05 08:02:58;;;;;;;3.65;3.38;;;29.40;58.00;;;;;;5038031;28;20057;-78
2021/06/05 08:05:39;;;;;;;7.20;5.32;;;29.40;58.00;;;;;;5037282;28;20049;-76
2021/06/05 08:08:11;;;;;;;11.07;6.53;;;29.70;57.90;;;;;;5037279;28;20053;-79
2021/06/05 08:10:39;;;;;;;3.85;3.55;;;30.00;57.00;;;;;;5046183;28;20049;-78
2021/06/05 08:13:08;;;;;;;4.25;3.95;;;30.00;56.00;;;;;;5037762;28;20053;-78
2021/06/05 08:15:36;;;;;;;5.65;4.97;;;30.00;56.00;;;;;;5036818;28;20050;-77
2021/06/05 08:18:04;;;;;;;7.60;6.38;;;30.50;55.90;;;;;;5036981;28;20469;-76
2021/06/05 08:20:43;;;;;;;4.85;4.45;;;30.60;54.70;;;;;;5036999;28;20050;-78
2021/06/05 08:23:10;;;;;;;4.50;4.10;;;30.70;54.80;;;;;;5041121;28;20049;-75
2021/06/05 08:25:36;;;;;;;5.00;3.63;;;30.90;54.30;;;;;;5037002;28;20127;-77
2021/06/05 08:28:04;;;;;;;4.28;3.63;;;31.30;53.80;;;;;;5037126;28;20048;-77
2021/06/05 08:30:33;;;;;;;4.30;3.92;;;31.20;52.80;;;;;;5036056;28;20053;-77
2021/06/05 08:33:00;;;;;;;4.57;3.38;;;31.20;52.60;;;;;;5035553;28;20507;-77
2021/06/05 08:35:27;;;;;;;4.30;3.90;;;30.60;51.90;;;;;;5037039;28;20593;-78
2021/06/05 08:37:53;;;;;;;4.88;4.10;;;30.80;52.60;;;;;;5055633;28;20056;-78
2021/06/05 08:40:24;;;;;;;4.72;4.05;;;30.90;50.60;;;;;;5050907;28;20048;-77
2021/06/05 08:42:52;;;;;;;3.85;3.55;;;30.30;51.20;;;;;;5035515;28;20618;-77
2021/06/05 08:45:23;;;;;;;5.32;4.85;;;30.20;52.80;;;;;;5036146;28;20053;-77
2021/06/05 08:47:50;;;;;;;4.55;4.15;;;30.90;52.60;;;;;;5036330;28;20064;-76
2021/06/05 08:50:19;;;;;;;4.10;3.67;;;30.90;52.00;;;;;;5036729;28;20048;-77
2021/06/05 08:52:52;;;;;;;4.32;3.92;;;31.40;52.80;;;;;;5036718;28;20052;-77
2021/06/05 08:55:27;;;;;;;4.25;3.85;;;31.20;49.90;;;;;;5049872;28;20045;-77
2021/06/05 08:57:56;;;;;;;3.92;3.63;;;30.70;51.80;;;;;;5056069;28;20496;-77
2021/06/05 09:00:29;;;;;;;7.53;5.63;;;31.20;51.50;;;;;;5056479;28;20041;-77
2021/06/05 09:02:58;;;;;;;5.82;4.43;;;31.50;50.80;;;;;;5056275;28;20045;-77
2021/06/05 09:05:29;;;;;;;5.93;5.30;;;31.90;49.80;;;;;;5055755;28;20471;-77
2021/06/05 09:07:57;;;;;;;4.70;3.78;;;32.30;49.70;;;;;;5036758;28;20132;-77
2021/06/05 09:10:24;;;;;;;5.32;4.82;;;32.20;48.60;;;;;;5036403;28;20052;-78
2021/06/05 09:12:50;;;;;;;4.28;3.88;;;32.40;48.90;;;;;;5036133;28;20053;-78
2021/06/05 09:15:24;;;;;;;4.82;4.35;;;31.90;48.80;;;;;;5046244;28;20099;-77
2021/06/05 09:17:53;;;;;;;3.72;3.42;;;32.30;48.30;;;;;;5055593;28;20110;-78
2021/06/05 09:20:33;;;;;;;4.68;4.28;;;32.40;48.50;;;;;;5055786;28;20049;-77
2021/06/05 09:23:02;;;;;;;3.38;3.08;;;33.00;47.90;;;;;;5056917;28;20045;-78
2021/06/05 09:25:35;;;;;;;4.20;3.53;;;32.40;46.60;;;;;;5060787;28;20056;-77
2021/06/05 09:28:21;;;;;;;3.67;3.38;;;31.70;47.50;;;;;;5055953;28;20061;-76
2021/06/05 09:30:49;;;;;;;4.97;4.47;;;32.00;49.70;;;;;;5042034;28;20050;-78
2021/06/05 09:33:28;;;;;;;7.35;5.60;;;32.90;47.50;;;;;;5036314;28;20045;-78
2021/06/05 09:36:15;;;;;;;6.53;5.35;;;33.80;47.40;;;;;;5035936;28;20050;-78
2021/06/05 09:38:48;;;;;;;4.38;3.97;;;34.00;46.30;;;;;;5035451;28;20053;-77
2021/06/05 09:41:21;;;;;;;3.97;3.15;;;33.90;46.20;;;;;;5035231;28;20563;-77
2021/06/05 09:43:48;;;;;;;5.22;4.72;;;32.90;46.10;;;;;;5035098;28;20046;-76
2021/06/05 09:46:33;;;;;;;4.53;4.13;;;32.20;47.20;;;;;;5035098;28;20072;-78
2021/06/05 09:49:26;;;;;;;5.18;4.47;;;32.00;48.10;;;;;;5037258;28;20049;-77
2021/06/05 09:52:10;;;;;;;6.45;5.70;;;32.70;48.10;;;;;;5034904;28;20527;-77
2021/06/05 09:54:40;;;;;;;9.27;3.95;;;33.20;48.00;;;;;;5034983;28;20045;-77
2021/06/05 09:57:36;;;;;;;5.82;5.25;;;34.10;47.10;;;;;;5049970;28;20045;-77
2021/06/05 10:00:16;;;;;;;6.43;5.40;;;34.40;45.00;;;;;;5054741;28;20052;-77
2021/06/05 10:02:45;;;;;;;6.22;5.35;;;34.90;45.20;;;;;;5054436;28;20049;-77
2021/06/05 10:05:34;;;;;;;6.18;5.40;;;34.90;44.30;;;;;;5053681;28;20045;-77
2021/06/05 10:08:19;;;;;;;4.53;4.13;;;34.60;44.60;;;;;;5054788;28;20106;-76
2021/06/05 10:10:50;;;;;;;5.20;4.70;;;35.20;45.00;;;;;;5054577;28;20390;-77
2021/06/05 10:13:23;;;;;;;4.10;3.80;;;35.40;43.80;;;;;;5054431;28;20049;-76
2021/06/05 10:15:58;;;;;;;5.10;4.68;;;35.60;43.10;;;;;;5053463;28;20417;-76
2021/06/05 10:18:27;;;;;;;4.85;4.07;;;35.80;42.80;;;;;;5053908;28;20045;-77
2021/06/05 10:20:58;;;;;;;5.75;3.92;;;36.10;42.20;;;;;;5045146;28;20448;-77
2021/06/05 10:23:25;;;;;;;;;;;36.30;42.20;;;;;;5034612;28;20076;-77
2021/06/05 10:25:56;;;;;;;7.53;5.03;;;36.00;41.70;;;;;;5033847;28;20031;-77
2021/06/05 10:28:26;;;;;;;8.90;8.00;;;36.10;42.40;;;;;;5034861;28;20041;-76
2021/06/05 10:30:56;;;;;;;4.60;4.18;;;36.40;42.10;;;;;;5033908;28;20053;-77
2021/06/05 10:33:33;;;;;;;5.50;5.03;;;36.70;41.70;;;;;;5034251;28;20413;-77
2021/06/05 10:36:18;;;;;;;6.60;5.72;;;36.40;41.50;;;;;;5047393;28;20151;-76
2021/06/05 10:38:46;;;;;;;6.40;5.63;;;37.00;40.60;;;;;;5054366;28;20041;-77
2021/06/05 10:41:17;;;;;;;4.30;4.00;;;37.00;41.20;;;;;;5058121;28;20420;-77
2021/06/05 10:43:44;;;;;;;7.35;5.10;;;36.80;40.50;;;;;;5054059;28;20118;-78
2021/06/05 10:46:20;;;;;;;4.25;3.83;;;37.00;40.90;;;;;;5052926;28;20053;-77
2021/06/05 10:48:48;;;;;;;5.25;4.75;;;37.10;41.10;;;;;;5053164;28;20071;-76
2021/06/05 10:51:17;;;;;;;3.90;3.47;;;37.30;40.80;;;;;;5053509;28;20049;-77
2021/06/05 10:53:53;;;;;;;3.88;3.58;;;37.20;40.40;;;;;;5053514;28;20049;-76
2021/06/05 10:56:41;;;;;;;4.32;4.03;;;36.80;40.40;;;;;;5053541;28;20045;-77
2021/06/05 10:59:32;;;;;;;4.15;3.85;;;36.80;40.90;;;;;;5053699;28;20045;-77
2021/06/05 11:01:58;;;;;;;5.82;4.57;;;36.40;40.90;;;;;;5053345;28;20500;-76
2021/06/05 11:04:44;;;;;;;4.55;4.25;;;36.50;41.40;;;;;;5043861;28;20386;-76
2021/06/05 11:07:27;;;;;;;4.55;4.25;;;36.80;40.60;;;;;;5033099;28;20052;-76
2021/06/05 11:09:55;;;;;;;6.53;4.70;;;37.00;40.40;;;;;;5032914;28;20049;-77
2021/06/05 11:12:47;;;;;;;4.30;4.00;;;37.40;40.30;;;;;;5033566;28;20049;-77
2021/06/05 11:15:58;;;;;;;4.35;3.95;;;38.00;38.40;;;;;;5032989;28;20045;-76
2021/06/05 11:18:31;;;;;;;5.22;4.82;;;36.50;39.90;;;;;;5035792;28;20049;-75
2021/06/05 11:20:59;;;;;;;5.50;4.38;;;36.20;40.80;;;;;;5032862;28;20052;-76
2021/06/05 11:23:28;;;;;;;4.05;3.75;;;36.60;41.10;;;;;;5032914;28;20069;-76
2021/06/05 11:25:57;;;;;;;4.07;3.42;;;36.80;40.20;;;;;;5033787;28;20551;-77
2021/06/05 11:28:45;;;;;;;3.83;3.63;;;37.20;40.40;;;;;;5036521;28;20049;-76
2021/06/05 11:31:41;;;;;;;4.15;3.75;;;37.50;39.10;;;;;;5037112;28;20106;-75
2021/06/05 11:34:09;;;;;;;3.50;3.28;;;37.30;39.00;;;;;;5049592;28;20280;-76
2021/06/05 11:36:48;;;;;;;3.50;3.30;;;37.50;39.20;;;;;;5056357;28;20072;-76
2021/06/05 11:39:47;;;;;;;4.55;3.50;;;37.60;39.10;;;;;;5056487;28;20067;-76
2021/06/05 11:42:48;;;;;;;3.17;2.97;;;37.30;39.00;;;;;;5056040;28;20044;-75
2021/06/05 11:45:53;;;;;;;3.70;3.38;;;37.30;38.70;;;;;;5056504;28;20041;-75
2021/06/05 11:48:48;;;;;;;3.60;3.35;;;37.10;38.40;;;;;;5056320;28;20045;-77
2021/06/05 11:51:42;;;;;;;3.75;2.95;;;37.30;39.00;;;;;;5056308;28;20064;-76
2021/06/05 11:54:22;;;;;;;3.38;3.17;;;37.50;38.30;;;;;;5043867;28;20071;-77
2021/06/05 11:56:56;;;;;;;3.58;3.30;;;37.40;38.90;;;;;;5051450;28;20052;-77
2021/06/05 11:59:27;;;;;;;3.45;3.25;;;37.50;37.80;;;;;;5036773;28;20045;-78
2021/06/05 12:02:08;;;;;;;3.10;2.90;;;37.10;38.10;;;;;;5036796;28;20103;-76
2021/06/05 12:04:40;;;;;;;2.90;2.70;;;37.80;38.30;;;;;;5036441;28;20041;-76
2021/06/05 12:07:26;;;;;;;4.03;3.72;;;38.00;37.30;;;;;;5035831;28;20057;-76
2021/06/05 12:09:56;;;;;;;4.47;4.18;;;37.80;36.60;;;;;;5035632;28;20122;-76
2021/06/05 12:12:24;;;;;;;3.17;2.92;;;37.80;36.50;;;;;;5036280;28;20055;-77
2021/06/05 12:14:59;;;;;;;2.97;2.78;;;37.90;36.90;;;;;;5036584;28;20506;-77
2021/06/05 12:17:32;;;;;;;3.15;2.95;;;37.60;35.70;;;;;;5035683;28;20505;-77
2021/06/05 12:20:14;;;;;;;3.10;2.80;;;37.00;36.40;;;;;;5049153;28;20056;-77
2021/06/05 12:22:45;;;;;;;2.97;2.78;;;37.00;37.40;;;;;;5056030;28;20049;-77
2021/06/05 12:25:31;;;;;;;3.40;3.03;;;37.40;37.10;;;;;;5055820;28;20075;-77
2021/06/05 12:28:11;;;;;;;3.42;3.20;;;37.60;35.60;;;;;;5055770;28;20045;-77
2021/06/05 12:30:41;;;;;;;3.80;3.13;;;37.70;35.90;;;;;;5055357;28;20074;-76
2021/06/05 12:33:11;;;;;;;2.92;2.72;;;37.30;34.70;;;;;;5049939;28;20075;-76
2021/06/05 12:35:39;;;;;;;3.63;2.55;;;37.00;35.00;;;;;;5035854;28;20176;-76
2021/06/05 12:38:10;;;;;;;2.75;2.55;;;36.70;36.70;;;;;;5034807;28;20551;-76
2021/06/05 12:40:41;;;;;;;2.80;2.60;;;36.90;36.00;;;;;;5035775;28;20041;-76
2021/06/05 12:43:10;;;;;;;2.33;2.20;;;37.10;36.20;;;;;;5035869;28;20053;-75
2021/06/05 12:45:37;;;;;;;2.65;2.50;;;37.10;35.70;;;;;;5035143;28;20115;-76
2021/06/05 12:48:05;;;;;;;8.25;4.15;;;37.10;35.90;;;;;;5036922;28;20060;-76
2021/06/05 12:50:36;;;;;;;2.63;2.42;;;36.80;36.00;;;;;;5035373;28;20456;-76
2021/06/05 12:53:08;;;;;;;2.83;2.63;;;36.80;36.30;;;;;;5035145;28;20045;-76
2021/06/05 12:55:40;;;;;;;3.08;2.88;;;36.60;35.60;;;;;;5034894;28;20045;-77
2021/06/05 12:58:08;;;;;;;3.35;2.63;;;36.40;37.50;;;;;;5035182;28;20637;-76
2021/06/05 13:00:41;;;;;;;3.55;3.25;;;36.30;36.40;;;;;;5035407;28;20045;-76
2021/06/05 13:03:27;;;;;;;3.15;2.95;;;36.50;36.90;;;;;;5044843;28;20052;-78
2021/06/05 13:06:07;;;;;;;2.90;2.70;;;36.60;36.20;;;;;;5053966;28;20137;-77